Conception — WYR8548 — position and weather

sailwx.info

Track history (hours):
 
Tides and Currents Weather Stations Pressure Air Temp Water Temp Dewpoint Dewpoint Depression Visibility Wind Speed Wind Dir Waves Ship Positions

Conception

Owner: TRUTH AQUATICS, SANTA BARBARA, CA. More information available from US FCC via Universal Licensing System and Coast Guard Vessel Documentation Center.

Last reported at 2018-Feb-22 20:26 UTC. Time now 2018-Feb-23 00:17 UTC.
Position N 34°24' W 119°41'.

Length 24 m.

Type: Diving. MMSI: 367098480.

Date/timePositionNaut miles runAvg speedWind from/ knotsBaromVisibWave heightAir tempDewpointWater temp
2018-Feb-22 20:26N 34°24' W 119°41'0 0.0
2018-Feb-22 19:59N 34°24' W 119°41'0 0.0
2018-Feb-22 18:17N 34°24' W 119°41'0 0.0
2018-Feb-22 14:35N 34°24' W 119°41'0 0.0
2018-Feb-22 14:20N 34°24' W 119°41'0 0.0
2018-Feb-22 09:56N 34°24' W 119°41'0 0.0
2018-Feb-22 04:47N 34°24' W 119°41'0 0.0
2018-Feb-22 04:17N 34°24' W 119°41'0 0.0
2018-Feb-22 01:20N 34°24' W 119°41'0 0.0
2018-Feb-21 21:56N 34°24' W 119°41'0 0.0
2018-Feb-21 18:35N 34°24' W 119°41'0 0.0
2018-Feb-21 14:59N 34°24' W 119°41'0 0.0
2018-Feb-21 11:53N 34°24' W 119°41'0 0.0
2018-Feb-21 10:20N 34°24' W 119°41'0 0.0
2018-Feb-21 08:08N 34°24' W 119°41'0 0.0
2018-Feb-21 07:44N 34°24' W 119°41'0 0.0
2018-Feb-21 07:17N 34°24' W 119°41'0 0.0
2018-Feb-21 03:41N 34°24' W 119°41'0 0.0
2018-Feb-21 03:20N 34°24' W 119°41'0 0.0
2018-Feb-20 20:14N 34°24' W 119°41'0 0.0
2018-Feb-20 19:44N 34°24' W 119°41'0 0.0
2018-Feb-20 11:37N 34°24' W 119°41'0 0.0
2018-Feb-20 11:07N 34°24' W 119°41'0 0.0
2018-Feb-20 10:55N 34°24' W 119°41'0 0.0
2018-Feb-20 09:31N 34°24' W 119°41'0 0.0
2018-Feb-19 18:49N 34°24' W 119°41'0 0.0
2018-Feb-19 18:19N 34°24' W 119°41'0 0.0
2018-Feb-19 17:43N 34°24' W 119°41'0 0.0
2018-Feb-19 10:43N 34°24' W 119°41'0 0.0
2018-Feb-19 09:01N 34°24' W 119°41'0 0.0
2018-Feb-19 04:07N 34°24' W 119°41'0 0.0
2018-Feb-19 03:49N 34°24' W 119°41'0 0.0
2018-Feb-19 01:22N 34°24' W 119°41'0 0.0
2018-Feb-18 23:55N 34°24' W 119°41'0 0.0
2018-Feb-18 17:55N 34°24' W 119°41'0 0.0
2018-Feb-18 16:01N 34°24' W 119°41'0 0.0
2018-Feb-18 13:55N 34°24' W 119°41'0 0.0
2018-Feb-18 10:49N 34°24' W 119°41'0 0.0
2018-Feb-18 10:19N 34°24' W 119°41'0 0.0
2018-Feb-18 09:55N 34°24' W 119°41'0 0.0
2018-Feb-18 03:55N 34°24' W 119°41'0 0.0
2018-Feb-18 01:55N 34°24' W 119°41'2 3.6
2018-Feb-18 01:21N 34°22' W 119°42'410.4
2018-Feb-18 00:59N 34°19' W 119°44'510.4
2018-Feb-18 00:27N 34°14' W 119°47'510.3
2018-Feb-17 23:57N 34°10' W 119°50'510.3
2018-Feb-17 23:27N 34°06' W 119°54'1 1.3
2018-Feb-17 22:29N 34°05' W 119°54'0 0.0
2018-Feb-17 21:26N 34°05' W 119°54'0 0.0
2018-Feb-17 20:59N 34°05' W 119°54'0 0.0
2018-Feb-17 20:26N 34°05' W 119°54'1 1.3
2018-Feb-17 19:57N 34°05' W 119°55'4 9.9
2018-Feb-17 19:30N 34°01' W 119°57'5 0.9
2018-Feb-17 14:16N 33°56' W 119°58'310.0
2018-Feb-17 14:00N 33°59' W 119°57'610.6
2018-Feb-17 13:27N 34°04' W 119°56'5 9.8
2018-Feb-17 12:59N 34°08' W 119°53'5 9.6
2018-Feb-17 12:30N 34°12' W 119°50'6 9.9
2018-Feb-17 11:56N 34°17' W 119°46'4 9.9
2018-Feb-17 11:30N 34°20' W 119°44'5 1.3
2018-Feb-17 07:59N 34°24' W 119°41'0 0.0
2018-Feb-17 07:26N 34°24' W 119°41'0 0.0
2018-Feb-17 04:32N 34°24' W 119°41'0 0.0
2018-Feb-16 16:47N 34°24' W 119°41'0 0.0
2018-Feb-16 15:17N 34°24' W 119°41'0 0.0
2018-Feb-16 12:41N 34°24' W 119°41'0 0.0
2018-Feb-16 12:20N 34°24' W 119°41'0 0.0
2018-Feb-16 03:47N 34°24' W 119°41'0 0.0
2018-Feb-15 22:41N 34°24' W 119°41'0 0.0
2018-Feb-15 22:17N 34°24' W 119°41'0 0.0
2018-Feb-15 19:44N 34°24' W 119°41'0 0.0
2018-Feb-15 18:53N 34°24' W 119°41'0 0.1
2018-Feb-15 18:11N 34°24' W 119°42'1 3.6
2018-Feb-15 18:00N 34°24' W 119°41'1 0.7
2018-Feb-15 17:03N 34°24' W 119°41'0 0.0
2018-Feb-15 16:57N 34°24' W 119°41'0 0.0
2018-Feb-15 09:11N 34°24' W 119°41'0 0.0
2018-Feb-15 07:14N 34°24' W 119°41'0 0.0
2018-Feb-15 04:23N 34°24' W 119°41'0 0.0
2018-Feb-15 02:56N 34°24' W 119°41'0 0.0
2018-Feb-14 15:56N 34°24' W 119°41'0 0.0
2018-Feb-14 12:05N 34°24' W 119°41'0 0.0
2018-Feb-14 11:41N 34°24' W 119°41'0 0.0
2018-Feb-14 11:29N 34°24' W 119°41'0 0.0
2018-Feb-14 09:47N 34°24' W 119°41'0 0.0
2018-Feb-14 00:14N 34°24' W 119°41'0 0.0
2018-Feb-13 23:47N 34°24' W 119°41'0 0.0
2018-Feb-13 23:29N 34°24' W 119°41'0 0.0
2018-Feb-13 22:35N 34°24' W 119°41'0 0.0
2018-Feb-13 22:17N 34°24' W 119°41'0 0.0
2018-Feb-13 15:14N 34°24' W 119°41'0 0.0
2018-Feb-13 14:59N 34°24' W 119°41'0 0.0
2018-Feb-13 11:59N 34°24' W 119°41'0 0.0
2018-Feb-13 10:35N 34°24' W 119°41'0 0.0
2018-Feb-13 10:26N 34°24' W 119°41'0 0.0
2018-Feb-13 05:29N 34°24' W 119°41'0 0.0
2018-Feb-13 03:08N 34°24' W 119°41'0 0.0
2018-Feb-13 02:41N 34°24' W 119°41'0 0.0
2018-Feb-13 00:47N 34°24' W 119°41'  
Track history (hours):
 
Tides and Currents Weather Stations Pressure Air Temp Water Temp Dewpoint Dewpoint Depression Visibility Wind Speed Wind Dir Waves Ship Positions

Conception

Owner: TRUTH AQUATICS, SANTA BARBARA, CA. More information available from US FCC via Universal Licensing System and Coast Guard Vessel Documentation Center.

Last reported at 2018-Feb-22 20:26 UTC. Time now 2018-Feb-23 00:17 UTC.
Position N 34°24' W 119°41'.

Length 24 m.

Type: Diving. MMSI: 367098480.

Date/timePositionNaut miles runAvg speedWind from/ knotsBaromVisibWave heightAir tempDewpointWater temp
2018-Feb-22 20:26N 34°24' W 119°41'0 0.0
2018-Feb-22 19:59N 34°24' W 119°41'0 0.0
2018-Feb-22 18:17N 34°24' W 119°41'0 0.0
2018-Feb-22 14:35N 34°24' W 119°41'0 0.0
2018-Feb-22 14:20N 34°24' W 119°41'0 0.0
2018-Feb-22 09:56N 34°24' W 119°41'0 0.0
2018-Feb-22 04:47N 34°24' W 119°41'0 0.0
2018-Feb-22 04:17N 34°24' W 119°41'0 0.0
2018-Feb-22 01:20N 34°24' W 119°41'0 0.0
2018-Feb-21 21:56N 34°24' W 119°41'0 0.0
2018-Feb-21 18:35N 34°24' W 119°41'0 0.0
2018-Feb-21 14:59N 34°24' W 119°41'0 0.0
2018-Feb-21 11:53N 34°24' W 119°41'0 0.0
2018-Feb-21 10:20N 34°24' W 119°41'0 0.0
2018-Feb-21 08:08N 34°24' W 119°41'0 0.0
2018-Feb-21 07:44N 34°24' W 119°41'0 0.0
2018-Feb-21 07:17N 34°24' W 119°41'0 0.0
2018-Feb-21 03:41N 34°24' W 119°41'0 0.0
2018-Feb-21 03:20N 34°24' W 119°41'0 0.0
2018-Feb-20 20:14N 34°24' W 119°41'0 0.0
2018-Feb-20 19:44N 34°24' W 119°41'0 0.0
2018-Feb-20 11:37N 34°24' W 119°41'0 0.0
2018-Feb-20 11:07N 34°24' W 119°41'0 0.0
2018-Feb-20 10:55N 34°24' W 119°41'0 0.0
2018-Feb-20 09:31N 34°24' W 119°41'0 0.0
2018-Feb-19 18:49N 34°24' W 119°41'0 0.0
2018-Feb-19 18:19N 34°24' W 119°41'0 0.0
2018-Feb-19 17:43N 34°24' W 119°41'0 0.0
2018-Feb-19 10:43N 34°24' W 119°41'0 0.0
2018-Feb-19 09:01N 34°24' W 119°41'0 0.0
2018-Feb-19 04:07N 34°24' W 119°41'0 0.0
2018-Feb-19 03:49N 34°24' W 119°41'0 0.0
2018-Feb-19 01:22N 34°24' W 119°41'0 0.0
2018-Feb-18 23:55N 34°24' W 119°41'0 0.0
2018-Feb-18 17:55N 34°24' W 119°41'0 0.0
2018-Feb-18 16:01N 34°24' W 119°41'0 0.0
2018-Feb-18 13:55N 34°24' W 119°41'0 0.0
2018-Feb-18 10:49N 34°24' W 119°41'0 0.0
2018-Feb-18 10:19N 34°24' W 119°41'0 0.0
2018-Feb-18 09:55N 34°24' W 119°41'0 0.0
2018-Feb-18 03:55N 34°24' W 119°41'0 0.0
2018-Feb-18 01:55N 34°24' W 119°41'2 3.6
2018-Feb-18 01:21N 34°22' W 119°42'410.4
2018-Feb-18 00:59N 34°19' W 119°44'510.4
2018-Feb-18 00:27N 34°14' W 119°47'510.3
2018-Feb-17 23:57N 34°10' W 119°50'510.3
2018-Feb-17 23:27N 34°06' W 119°54'1 1.3
2018-Feb-17 22:29N 34°05' W 119°54'0 0.0
2018-Feb-17 21:26N 34°05' W 119°54'0 0.0
2018-Feb-17 20:59N 34°05' W 119°54'0 0.0
2018-Feb-17 20:26N 34°05' W 119°54'1 1.3
2018-Feb-17 19:57N 34°05' W 119°55'4 9.9
2018-Feb-17 19:30N 34°01' W 119°57'5 0.9
2018-Feb-17 14:16N 33°56' W 119°58'310.0
2018-Feb-17 14:00N 33°59' W 119°57'610.6
2018-Feb-17 13:27N 34°04' W 119°56'5 9.8
2018-Feb-17 12:59N 34°08' W 119°53'5 9.6
2018-Feb-17 12:30N 34°12' W 119°50'6 9.9
2018-Feb-17 11:56N 34°17' W 119°46'4 9.9
2018-Feb-17 11:30N 34°20' W 119°44'5 1.3
2018-Feb-17 07:59N 34°24' W 119°41'0 0.0
2018-Feb-17 07:26N 34°24' W 119°41'0 0.0
2018-Feb-17 04:32N 34°24' W 119°41'0 0.0
2018-Feb-16 16:47N 34°24' W 119°41'0 0.0
2018-Feb-16 15:17N 34°24' W 119°41'0 0.0
2018-Feb-16 12:41N 34°24' W 119°41'0 0.0
2018-Feb-16 12:20N 34°24' W 119°41'0 0.0
2018-Feb-16 03:47N 34°24' W 119°41'0 0.0
2018-Feb-15 22:41N 34°24' W 119°41'0 0.0
2018-Feb-15 22:17N 34°24' W 119°41'0 0.0
2018-Feb-15 19:44N 34°24' W 119°41'0 0.0
2018-Feb-15 18:53N 34°24' W 119°41'0 0.1
2018-Feb-15 18:11N 34°24' W 119°42'1 3.6
2018-Feb-15 18:00N 34°24' W 119°41'1 0.7
2018-Feb-15 17:03N 34°24' W 119°41'0 0.0
2018-Feb-15 16:57N 34°24' W 119°41'0 0.0
2018-Feb-15 09:11N 34°24' W 119°41'0 0.0
2018-Feb-15 07:14N 34°24' W 119°41'0 0.0
2018-Feb-15 04:23N 34°24' W 119°41'0 0.0
2018-Feb-15 02:56N 34°24' W 119°41'0 0.0
2018-Feb-14 15:56N 34°24' W 119°41'0 0.0
2018-Feb-14 12:05N 34°24' W 119°41'0 0.0
2018-Feb-14 11:41N 34°24' W 119°41'0 0.0
2018-Feb-14 11:29N 34°24' W 119°41'0 0.0
2018-Feb-14 09:47N 34°24' W 119°41'0 0.0
2018-Feb-14 00:14N 34°24' W 119°41'0 0.0
2018-Feb-13 23:47N 34°24' W 119°41'0 0.0
2018-Feb-13 23:29N 34°24' W 119°41'0 0.0
2018-Feb-13 22:35N 34°24' W 119°41'0 0.0
2018-Feb-13 22:17N 34°24' W 119°41'0 0.0
2018-Feb-13 15:14N 34°24' W 119°41'0 0.0
2018-Feb-13 14:59N 34°24' W 119°41'0 0.0
2018-Feb-13 11:59N 34°24' W 119°41'0 0.0
2018-Feb-13 10:35N 34°24' W 119°41'0 0.0
2018-Feb-13 10:26N 34°24' W 119°41'0 0.0
2018-Feb-13 05:29N 34°24' W 119°41'0 0.0
2018-Feb-13 03:08N 34°24' W 119°41'0 0.0
2018-Feb-13 02:41N 34°24' W 119°41'0 0.0
2018-Feb-13 00:47N 34°24' W 119°41'  

Dump ship's entire track history